Time;durP1;ratioP1;P1;durP2;ratioP2;P2;SDS_P1;SDS_P2;PMS_P1;PMS_P2;Temp;Humidity;BMP_temperature;BMP_pressure;BME280_temperature;BME280_humidity;BME280_pressure;Samples;Min_cycle;Max_cycle;Signal;HPM_P1;HPM_P2
2022/06/28 00:00:12;;;;;;;8.13;5.57;;;13.30;99.90;;;;;;4998505;28;20069;-69
2022/06/28 00:02:38;;;;;;;7.90;6.43;;;13.20;99.90;;;;;;5015947;28;20430;-69
2022/06/28 00:05:05;;;;;;;7.40;6.05;;;13.20;99.90;;;;;;4998629;28;20041;-69
2022/06/28 00:07:31;;;;;;;10.55;6.45;;;13.20;99.90;;;;;;4998887;28;20046;-70
2022/06/28 00:09:56;;;;;;;11.30;5.78;;;13.20;99.90;;;;;;5016243;28;20042;-69
2022/06/28 00:12:22;;;;;;;10.93;6.28;;;13.10;99.90;;;;;;4999009;28;20085;-69
2022/06/28 00:17:32;;;;;;;9.98;6.70;;;13.00;99.90;;;;;;5015743;28;20053;-69
2022/06/28 00:19:57;;;;;;;9.30;6.10;;;13.10;99.90;;;;;;4997707;28;20050;-70
2022/06/28 00:22:23;;;;;;;10.65;6.97;;;13.00;99.90;;;;;;4998610;28;20449;-69
2022/06/28 00:24:49;;;;;;;8.38;6.38;;;13.00;99.90;;;;;;4998322;28;20053;-69
2022/06/28 00:27:14;;;;;;;8.88;6.13;;;13.00;99.90;;;;;;5015613;28;20046;-69
2022/06/28 00:29:40;;;;;;;9.85;6.18;;;13.00;99.90;;;;;;5015316;28;20053;-70
2022/06/28 00:32:06;;;;;;;10.90;6.85;;;13.00;99.90;;;;;;5015986;28;20053;-70
2022/06/28 00:34:32;;;;;;;10.85;6.65;;;13.00;99.90;;;;;;5015608;28;20145;-69
2022/06/28 00:36:57;;;;;;;9.45;6.32;;;13.00;99.90;;;;;;5015848;28;20059;-69
2022/06/28 00:39:23;;;;;;;8.70;6.05;;;13.00;99.90;;;;;;5015417;28;20489;-68
2022/06/28 00:41:49;;;;;;;9.32;5.70;;;12.90;99.90;;;;;;4998172;28;20067;-70
2022/06/28 00:44:14;;;;;;;10.88;6.50;;;12.90;99.90;;;;;;5015331;28;20081;-69
2022/06/28 00:46:40;;;;;;;8.80;5.82;;;12.80;99.90;;;;;;5015737;28;20077;-70
2022/06/28 00:49:07;;;;;;;10.98;6.03;;;12.80;99.90;;;;;;4998340;28;20048;-69
2022/06/28 00:51:33;;;;;;;11.35;6.82;;;12.80;99.90;;;;;;4979510;28;20062;-69
2022/06/28 00:53:59;;;;;;;11.55;6.70;;;12.70;99.90;;;;;;4962157;28;20068;-70
2022/06/28 00:56:25;;;;;;;9.48;5.88;;;12.90;99.90;;;;;;4995926;28;20061;-69
2022/06/28 00:58:52;;;;;;;9.23;5.90;;;12.70;99.90;;;;;;4995685;28;20053;-69
2022/06/28 01:01:20;;;;;;;15.10;7.80;;;12.70;99.90;;;;;;4978836;28;20073;-70
2022/06/28 01:03:46;;;;;;;26.35;6.50;;;12.70;99.90;;;;;;4995003;28;20414;-69
2022/06/28 01:06:11;;;;;;;9.35;6.50;;;12.80;99.90;;;;;;4978739;28;20047;-69
2022/06/28 01:08:38;;;;;;;9.18;6.68;;;12.70;99.90;;;;;;4995540;28;20355;-70
2022/06/28 01:11:18;;;;;;;11.65;7.07;;;12.70;99.90;;;;;;4995407;28;20132;-69
2022/06/28 01:13:57;;;;;;;14.93;7.25;;;12.70;99.90;;;;;;4978683;28;20046;-70
2022/06/28 01:16:23;;;;;;;10.70;6.72;;;12.60;99.90;;;;;;4995485;28;20133;-70
2022/06/28 01:18:49;;;;;;;11.30;6.82;;;12.70;99.90;;;;;;4978186;28;20074;-70
2022/06/28 01:21:16;;;;;;;10.65;6.57;;;12.70;99.90;;;;;;4977360;28;20564;-69
2022/06/28 01:23:43;;;;;;;10.13;6.28;;;12.70;99.90;;;;;;4995979;28;20328;-69
2022/06/28 01:26:10;;;;;;;20.25;6.75;;;12.80;99.90;;;;;;4995498;28;20050;-69
2022/06/28 01:28:37;;;;;;;9.15;5.70;;;12.70;99.90;;;;;;4977990;28;20058;-69
2022/06/28 01:31:03;;;;;;;11.05;6.60;;;12.70;99.90;;;;;;4997333;28;20432;-69
2022/06/28 01:33:29;;;;;;;11.50;6.30;;;12.60;99.90;;;;;;4982084;28;20054;-69
2022/06/28 01:35:55;;;;;;;15.05;6.18;;;12.60;99.90;;;;;;4999138;28;20105;-69
2022/06/28 01:38:21;;;;;;;10.82;6.88;;;12.60;99.90;;;;;;4999648;28;20130;-69
2022/06/28 01:40:46;;;;;;;9.07;6.35;;;12.60;99.90;;;;;;4999447;28;20046;-70
2022/06/28 01:43:13;;;;;;;12.55;6.38;;;12.60;99.90;;;;;;4998435;28;20411;-69
2022/06/28 01:45:40;;;;;;;10.57;6.60;;;12.60;99.90;;;;;;4999177;28;20057;-69
2022/06/28 01:48:06;;;;;;;10.20;6.22;;;12.60;99.90;;;;;;4982134;28;20054;-70
2022/06/28 01:50:32;;;;;;;9.68;5.53;;;12.50;99.90;;;;;;4991440;28;20062;-70
2022/06/28 01:52:57;;;;;;;10.75;7.03;;;12.50;99.90;;;;;;5001328;28;20064;-69
2022/06/28 01:55:23;;;;;;;9.45;6.53;;;12.50;99.90;;;;;;5001323;28;20045;-70
2022/06/28 01:57:49;;;;;;;9.75;6.60;;;12.40;99.90;;;;;;5000468;28;20451;-69
2022/06/28 02:00:15;;;;;;;10.57;6.57;;;12.40;99.90;;;;;;5001025;28;20137;-70
2022/06/28 02:02:41;;;;;;;9.50;6.43;;;12.40;99.90;;;;;;5000924;28;20050;-69
2022/06/28 02:05:07;;;;;;;9.20;6.40;;;12.40;99.90;;;;;;5018229;28;20038;-69
2022/06/28 02:07:33;;;;;;;13.13;7.07;;;12.30;99.90;;;;;;5019005;28;20053;-70
2022/06/28 02:09:58;;;;;;;11.00;7.45;;;12.30;99.90;;;;;;5018354;28;20048;-70
2022/06/28 02:12:28;;;;;;;7.57;5.85;;;12.30;99.90;;;;;;5017964;28;20070;-69
2022/06/28 02:14:57;;;;;;;10.32;6.90;;;12.30;99.90;;;;;;5001137;28;20061;-70
2022/06/28 02:17:23;;;;;;;9.25;6.55;;;12.30;99.90;;;;;;5000639;28;20077;-70
2022/06/28 02:19:48;;;;;;;10.73;7.20;;;12.30;99.90;;;;;;5018128;28;20147;-69
2022/06/28 02:22:14;;;;;;;9.38;6.38;;;12.20;99.90;;;;;;5018270;28;20046;-70
2022/06/28 02:24:40;;;;;;;10.20;7.20;;;12.20;99.90;;;;;;5001172;28;20450;-70
2022/06/28 02:27:06;;;;;;;10.90;6.47;;;12.20;99.90;;;;;;5000102;28;20121;-69
2022/06/28 02:29:31;;;;;;;7.40;5.55;;;12.20;99.90;;;;;;5017993;28;20425;-69
2022/06/28 02:31:57;;;;;;;9.90;6.70;;;12.20;99.90;;;;;;5000139;28;20433;-70
2022/06/28 02:42:35;;;;;;;10.02;7.22;;;12.20;99.90;;;;;;4996011;28;20041;-69
2022/06/28 02:45:01;;;;;;;10.38;6.38;;;12.20;99.90;;;;;;4983882;28;20057;-69
2022/06/28 02:47:26;;;;;;;16.05;7.88;;;12.10;99.90;;;;;;5000111;28;20037;-70
2022/06/28 02:49:52;;;;;;;11.43;6.38;;;12.10;99.90;;;;;;4999826;28;20081;-70
2022/06/28 02:52:18;;;;;;;10.55;6.50;;;12.10;99.90;;;;;;5000484;28;20064;-69
2022/06/28 02:54:43;;;;;;;12.43;7.05;;;12.00;99.90;;;;;;5000392;28;20141;-70
2022/06/28 02:57:09;;;;;;;9.88;6.65;;;12.00;99.90;;;;;;4999566;28;20042;-69
2022/06/28 02:59:34;;;;;;;10.75;6.65;;;12.00;99.90;;;;;;5001109;28;20390;-69
2022/06/28 03:02:00;;;;;;;10.98;6.63;;;12.00;99.90;;;;;;5000838;28;20049;-69
2022/06/28 03:04:25;;;;;;;10.10;5.85;;;12.00;99.90;;;;;;5017249;28;20445;-69
2022/06/28 03:06:51;;;;;;;10.73;6.85;;;12.00;99.90;;;;;;4999884;28;20046;-70
2022/06/28 03:09:17;;;;;;;9.43;6.13;;;12.00;99.90;;;;;;5000361;28;20050;-69
2022/06/28 03:11:42;;;;;;;9.77;6.53;;;11.90;99.90;;;;;;4999406;28;20050;-70
2022/06/28 03:14:08;;;;;;;12.65;6.82;;;12.00;99.90;;;;;;5000806;28;20435;-69
2022/06/28 03:16:33;;;;;;;12.27;7.35;;;11.90;99.90;;;;;;4999448;28;20083;-70
2022/06/28 03:18:59;;;;;;;10.07;6.13;;;12.00;99.90;;;;;;5016794;28;20049;-70
2022/06/28 03:21:25;;;;;;;11.55;6.55;;;11.90;99.90;;;;;;4999878;28;20058;-70
2022/06/28 03:23:50;;;;;;;10.93;5.80;;;12.00;99.90;;;;;;5016744;28;20097;-68
2022/06/28 03:26:16;;;;;;;12.90;6.72;;;12.00;99.90;;;;;;4998942;28;20458;-69
2022/06/28 03:28:41;;;;;;;9.40;6.30;;;11.90;99.90;;;;;;5000134;28;20052;-69
2022/06/28 03:31:07;;;;;;;10.05;6.25;;;12.00;99.90;;;;;;5016910;28;20045;-69
2022/06/28 03:33:32;;;;;;;12.38;6.90;;;11.90;99.90;;;;;;5016567;28;20092;-69
2022/06/28 03:35:58;;;;;;;14.50;7.13;;;11.90;99.90;;;;;;5016764;28;20096;-70
2022/06/28 03:38:24;;;;;;;9.48;6.72;;;11.90;99.90;;;;;;4998989;28;20046;-69
2022/06/28 03:40:50;;;;;;;14.57;7.05;;;11.90;99.90;;;;;;5015880;28;20463;-69
2022/06/28 03:43:15;;;;;;;9.82;6.70;;;12.00;99.90;;;;;;4999110;28;20054;-69
2022/06/28 03:45:41;;;;;;;11.25;7.10;;;12.00;99.90;;;;;;4999122;28;20085;-69
2022/06/28 03:48:07;;;;;;;10.45;7.63;;;12.00;99.90;;;;;;5016383;28;20041;-69
2022/06/28 03:50:32;;;;;;;11.80;7.82;;;12.00;99.90;;;;;;4999046;28;20490;-69
2022/06/28 03:52:58;;;;;;;10.73;7.18;;;12.00;99.90;;;;;;5016070;28;20133;-69
2022/06/28 03:55:24;;;;;;;11.13;6.70;;;11.90;99.90;;;;;;4998814;28;20045;-70
2022/06/28 03:57:52;;;;;;;11.43;6.28;;;12.10;99.90;;;;;;5016084;28;20069;-68
2022/06/28 04:00:18;;;;;;;9.77;6.55;;;12.10;99.90;;;;;;4982353;28;20049;-69
2022/06/28 04:02:43;;;;;;;12.00;6.55;;;12.10;99.90;;;;;;5016267;28;20057;-69
2022/06/28 04:05:09;;;;;;;11.10;7.30;;;12.10;99.90;;;;;;4997299;28;20448;-70
2022/06/28 04:07:35;;;;;;;12.55;6.35;;;12.10;99.90;;;;;;4998257;28;20053;-69
2022/06/28 04:10:00;;;;;;;7.70;5.47;;;12.10;99.90;;;;;;5015786;28;20057;-70
2022/06/28 04:12:26;;;;;;;11.48;5.82;;;12.20;99.90;;;;;;5015882;28;20048;-69
2022/06/28 04:14:52;;;;;;;12.32;6.78;;;12.20;99.90;;;;;;4998506;28;20073;-69
2022/06/28 04:17:17;;;;;;;11.63;7.03;;;12.20;99.90;;;;;;4998129;28;20050;-69
2022/06/28 04:19:43;;;;;;;17.98;7.03;;;12.20;99.90;;;;;;5015817;28;20045;-69
2022/06/28 04:22:08;;;;;;;7.93;5.65;;;12.20;99.90;;;;;;4998069;28;20515;-70
2022/06/28 04:24:34;;;;;;;13.23;6.57;;;12.30;99.90;;;;;;4997935;28;20069;-69
2022/06/28 04:27:00;;;;;;;10.35;6.82;;;12.30;99.90;;;;;;4998571;28;20085;-71
2022/06/28 04:29:25;;;;;;;10.43;6.30;;;12.30;99.90;;;;;;5015561;28;20077;-69
2022/06/28 04:31:51;;;;;;;11.15;7.20;;;12.40;99.90;;;;;;4999218;28;20137;-71
2022/06/28 04:34:17;;;;;;;17.80;6.75;;;12.40;99.90;;;;;;5015588;28;20501;-69
2022/06/28 04:36:42;;;;;;;12.98;6.30;;;12.40;99.90;;;;;;4998333;28;20049;-69
2022/06/28 04:39:08;;;;;;;9.93;6.18;;;12.50;99.90;;;;;;4997605;28;20137;-69
2022/06/28 04:41:33;;;;;;;10.13;6.68;;;12.50;99.90;;;;;;4997850;28;20125;-70
2022/06/28 04:43:59;;;;;;;12.52;6.75;;;12.50;99.90;;;;;;4997858;28;20425;-70
2022/06/28 04:46:25;;;;;;;10.77;6.68;;;12.60;99.90;;;;;;4997927;28;20058;-69
2022/06/28 04:48:51;;;;;;;12.38;7.43;;;12.70;99.90;;;;;;4998317;28;20081;-71
2022/06/28 04:51:16;;;;;;;13.05;6.40;;;12.90;99.90;;;;;;5014923;28;20064;-69
2022/06/28 04:53:44;;;;;;;9.90;6.13;;;13.10;99.90;;;;;;4998384;28;20061;-70
2022/06/28 04:56:11;;;;;;;9.65;6.03;;;13.10;99.90;;;;;;5014688;28;20046;-70
2022/06/28 04:58:37;;;;;;;9.48;6.20;;;13.20;99.90;;;;;;4998288;28;20485;-70
2022/06/28 05:01:02;;;;;;;16.50;6.78;;;13.20;99.90;;;;;;4998599;28;20077;-70
2022/06/28 05:03:28;;;;;;;10.50;6.22;;;13.20;99.90;;;;;;4997597;28;20061;-70
2022/06/28 05:05:55;;;;;;;12.20;6.57;;;13.30;99.90;;;;;;4997004;28;20053;-70
2022/06/28 05:08:20;;;;;;;10.05;6.32;;;13.30;99.90;;;;;;5015088;28;20129;-72
2022/06/28 05:10:46;;;;;;;8.32;5.95;;;13.30;99.90;;;;;;5015282;28;20197;-70
2022/06/28 05:13:12;;;;;;;9.25;6.68;;;13.40;99.90;;;;;;4997961;28;20050;-70
2022/06/28 05:15:38;;;;;;;11.48;6.82;;;14.10;99.90;;;;;;5014950;28;20049;-69
2022/06/28 05:18:03;;;;;;;14.80;7.45;;;15.40;99.90;;;;;;5014951;28;20041;-70
2022/06/28 05:20:29;;;;;;;9.82;6.15;;;16.90;99.90;;;;;;4996765;28;21525;-70
2022/06/28 05:22:54;;;;;;;9.88;5.00;;;18.20;99.90;;;;;;4995360;28;20065;-71
2022/06/28 05:25:20;;;;;;;6.45;4.95;;;19.50;99.90;;;;;;4998000;28;20463;-72
2022/06/28 05:27:46;;;;;;;9.40;4.38;;;20.50;99.90;;;;;;4998434;28;20045;-70
2022/06/28 05:30:12;;;;;;;4.80;3.75;;;21.50;99.90;;;;;;5003481;28;20065;-71
2022/06/28 05:32:38;;;;;;;9.13;4.32;;;22.20;99.90;;;;;;4996770;28;20089;-70
2022/06/28 05:35:05;;;;;;;4.60;3.13;;;22.70;99.90;;;;;;5012760;28;20065;-71
2022/06/28 05:37:31;;;;;;;4.57;2.85;;;23.40;99.90;;;;;;4995463;28;20108;-70
2022/06/28 05:39:57;;;;;;;6.13;3.20;;;24.00;99.90;;;;;;4997199;28;20057;-71
2022/06/28 05:42:23;;;;;;;5.57;2.78;;;24.50;99.90;;;;;;5013878;28;20085;-69
2022/06/28 05:44:48;;;;;;;5.57;2.63;;;24.90;99.90;;;;;;5011855;28;20131;-68
2022/06/28 05:47:14;;;;;;;4.57;2.50;;;25.00;99.90;;;;;;5010674;28;20061;-68
2022/06/28 05:49:39;;;;;;;5.75;2.78;;;25.60;99.90;;;;;;4996672;28;20057;-69
2022/06/28 05:52:06;;;;;;;7.53;2.92;;;25.50;99.90;;;;;;5013764;28;20050;-68
2022/06/28 05:54:32;;;;;;;6.07;2.90;;;24.40;99.90;;;;;;4995637;28;20046;-68
2022/06/28 05:56:57;;;;;;;6.63;2.40;;;23.40;99.90;;;;;;4996993;28;20065;-68
2022/06/28 05:59:23;;;;;;;4.93;2.55;;;22.40;99.90;;;;;;4996400;28;20046;-68
2022/06/28 06:01:49;;;;;;;7.68;2.35;;;21.60;99.90;;;;;;4996481;28;20133;-67
2022/06/28 06:04:14;;;;;;;6.45;2.33;;;20.90;99.90;;;;;;5013919;28;20371;-67
2022/06/28 06:06:40;;;;;;;8.38;2.90;;;20.50;99.90;;;;;;4996926;28;20050;-67
2022/06/28 06:09:06;;;;;;;5.18;2.22;;;21.50;99.90;;;;;;4996601;28;20046;-68
2022/06/28 06:11:31;;;;;;;4.65;2.65;;;22.50;99.90;;;;;;4997434;28;20095;-69
2022/06/28 06:13:57;;;;;;;7.97;2.75;;;23.80;99.90;;;;;;4997096;28;20454;-66
2022/06/28 06:16:23;;;;;;;6.68;2.20;;;24.40;99.90;;;;;;4996321;28;20180;-68
2022/06/28 06:18:48;;;;;;;6.53;2.60;;;23.90;99.90;;;;;;4999022;28;20447;-68
2022/06/28 06:21:14;;;;;;;9.93;2.67;;;23.40;99.90;;;;;;5000716;28;20057;-68
2022/06/28 06:23:40;;;;;;;8.32;3.45;;;22.90;99.90;;;;;;5017297;28;20038;-68
2022/06/28 06:26:05;;;;;;;5.60;2.80;;;22.60;99.90;;;;;;4999680;28;20038;-69
2022/06/28 06:28:32;;;;;;;3.75;2.20;;;21.90;99.90;;;;;;5005739;28;20046;-68
2022/06/28 06:30:58;;;;;;;5.38;2.50;;;21.20;99.90;;;;;;5017371;28;20112;-69
2022/06/28 06:33:24;;;;;;;8.18;3.28;;;21.00;99.90;;;;;;5000165;28;20058;-68
2022/06/28 06:35:49;;;;;;;6.63;2.53;;;21.80;99.90;;;;;;4998649;28;20465;-67
2022/06/28 06:38:15;;;;;;;8.38;3.35;;;22.80;99.90;;;;;;4999440;28;20048;-68
2022/06/28 06:40:41;;;;;;;4.63;2.15;;;23.70;99.90;;;;;;5017132;28;20046;-68
2022/06/28 06:43:06;;;;;;;7.75;2.30;;;23.60;99.90;;;;;;4998985;28;20042;-67
2022/06/28 06:45:32;;;;;;;8.07;2.45;;;24.30;99.90;;;;;;4999906;28;20402;-67
2022/06/28 06:47:58;;;;;;;7.45;2.67;;;24.80;99.90;;;;;;5017274;28;20421;-68
2022/06/28 06:50:23;;;;;;;6.03;2.22;;;25.20;99.90;;;;;;4998649;28;20065;-68
2022/06/28 06:52:49;;;;;;;7.65;2.55;;;26.20;99.90;;;;;;5016711;28;20126;-68
2022/06/28 06:55:14;;;;;;;5.47;2.15;;;27.00;99.90;;;;;;5017013;28;20049;-67
2022/06/28 06:57:40;;;;;;;7.55;2.33;;;27.30;99.90;;;;;;5016207;28;20060;-67
2022/06/28 07:00:08;;;;;;;5.00;2.13;;;27.80;99.90;;;;;;4999808;28;20046;-68
2022/06/28 07:02:39;;;;;;;5.57;2.28;;;27.80;99.90;;;;;;4999610;28;20061;-68
2022/06/28 07:05:05;;;;;;;5.05;1.63;;;28.10;99.90;;;;;;4998649;28;20077;-68
2022/06/28 07:07:31;;;;;;;4.55;1.85;;;28.40;99.90;;;;;;4995115;28;20046;-67
2022/06/28 07:09:58;;;;;;;5.53;1.80;;;28.90;99.90;;;;;;5016929;28;20042;-67
2022/06/28 07:12:24;;;;;;;7.82;2.00;;;29.10;99.20;;;;;;5016809;28;20073;-68
2022/06/28 07:14:50;;;;;;;6.72;2.42;;;28.80;99.10;;;;;;4999624;28;20132;-68
2022/06/28 07:17:15;;;;;;;7.72;2.05;;;29.30;99.90;;;;;;4999400;28;20077;-67
2022/06/28 07:19:41;;;;;;;7.32;2.10;;;29.60;98.80;;;;;;5014943;28;20045;-67
2022/06/28 07:22:06;;;;;;;7.40;1.75;;;29.60;97.60;;;;;;5014555;28;20046;-67
2022/06/28 07:24:32;;;;;;;5.65;1.58;;;29.40;99.50;;;;;;4998442;28;20041;-67
2022/06/28 07:26:57;;;;;;;5.65;1.80;;;29.30;99.30;;;;;;5012032;28;20370;-67
2022/06/28 07:29:23;;;;;;;4.68;1.92;;;29.00;98.30;;;;;;4996332;28;20081;-67
2022/06/28 07:31:50;;;;;;;4.22;1.80;;;28.80;98.60;;;;;;5012620;28;20048;-67
2022/06/28 07:34:15;;;;;;;7.35;1.70;;;28.20;98.80;;;;;;4994068;28;20045;-67
2022/06/28 07:36:41;;;;;;;6.38;2.05;;;27.10;99.70;;;;;;4993625;28;20042;-66
2022/06/28 07:39:07;;;;;;;9.55;2.00;;;27.00;99.90;;;;;;4998001;28;20100;-67
2022/06/28 07:41:32;;;;;;;4.95;1.65;;;27.50;99.90;;;;;;4998640;28;20058;-68
2022/06/28 07:43:58;;;;;;;7.70;1.73;;;27.70;98.40;;;;;;4998416;28;20115;-67
2022/06/28 07:46:23;;;;;;;6.55;1.83;;;27.10;99.30;;;;;;5015699;28;20100;-68
2022/06/28 07:48:50;;;;;;;5.47;1.05;;;27.20;99.90;;;;;;4998582;28;20049;-68
2022/06/28 07:54:01;;;;;;;3.80;1.00;;;26.50;99.90;;;;;;5015757;28;20046;-67
2022/06/28 07:56:27;;;;;;;4.15;1.40;;;27.10;99.90;;;;;;4982568;28;20128;-68
2022/06/28 07:58:53;;;;;;;6.10;1.38;;;27.90;99.90;;;;;;5015395;28;20193;-68
2022/06/28 08:01:19;;;;;;;6.13;1.25;;;28.60;98.20;;;;;;5010301;28;20042;-68
2022/06/28 08:03:45;;;;;;;3.45;0.90;;;28.70;97.40;;;;;;4998192;28;20045;-67
2022/06/28 08:06:11;;;;;;;7.43;1.65;;;29.00;98.40;;;;;;4998517;28;20050;-67
2022/06/28 08:08:37;;;;;;;6.00;1.30;;;29.00;95.80;;;;;;4998729;28;20369;-67
2022/06/28 08:11:02;;;;;;;6.43;1.40;;;28.80;98.10;;;;;;5014634;28;20061;-66
2022/06/28 08:13:28;;;;;;;8.30;1.63;;;28.90;98.50;;;;;;4997644;28;20069;-67
2022/06/28 08:15:54;;;;;;;6.10;1.20;;;28.60;97.30;;;;;;5009947;28;20046;-67
2022/06/28 08:18:19;;;;;;;6.25;1.45;;;28.20;97.20;;;;;;4994580;28;20359;-69
2022/06/28 08:20:46;;;;;;;9.63;2.08;;;27.20;98.10;;;;;;5015812;28;20107;-68
2022/06/28 08:23:12;;;;;;;5.63;1.27;;;26.30;99.20;;;;;;4998337;28;20097;-69
2022/06/28 08:25:38;;;;;;;6.57;1.17;;;25.90;99.40;;;;;;4997989;28;20061;-69
2022/06/28 08:28:04;;;;;;;8.38;1.20;;;26.30;99.90;;;;;;4998473;28;20477;-69
2022/06/28 08:30:29;;;;;;;6.82;1.20;;;27.10;99.20;;;;;;4997639;28;20336;-69
2022/06/28 08:32:56;;;;;;;6.50;1.02;;;27.50;99.10;;;;;;4997406;28;20080;-69
2022/06/28 08:35:22;;;;;;;4.80;1.05;;;27.70;97.70;;;;;;5015330;28;20104;-69
2022/06/28 08:37:48;;;;;;;4.70;1.30;;;26.60;98.50;;;;;;4998829;28;20049;-68
2022/06/28 08:40:14;;;;;;;4.47;1.23;;;25.90;98.90;;;;;;5014869;28;20050;-68
2022/06/28 08:42:46;;;;;;;9.90;1.73;;;26.10;98.90;;;;;;5015264;28;20042;-68
2022/06/28 08:45:12;;;;;;;6.78;1.52;;;26.60;97.40;;;;;;5015538;28;20121;-68
2022/06/28 08:47:39;;;;;;;5.60;1.02;;;27.10;98.00;;;;;;5014686;28;20418;-69
2022/06/28 08:50:09;;;;;;;5.60;0.95;;;26.70;99.00;;;;;;4998032;28;20058;-69
2022/06/28 08:52:35;;;;;;;4.18;1.00;;;26.80;98.70;;;;;;4998417;28;20061;-68
2022/06/28 08:55:03;;;;;;;5.28;1.05;;;26.70;99.30;;;;;;5015223;28;20049;-69
2022/06/28 08:57:32;;;;;;;8.35;1.55;;;27.10;98.60;;;;;;5015204;28;20041;-69
2022/06/28 08:59:58;;;;;;;6.57;1.30;;;27.30;97.00;;;;;;4997615;28;20057;-70
2022/06/28 09:02:24;;;;;;;3.67;1.30;;;27.60;98.50;;;;;;4997782;28;20050;-68
2022/06/28 09:04:53;;;;;;;3.35;0.90;;;28.00;98.20;;;;;;4997959;28;20065;-69
2022/06/28 09:07:19;;;;;;;4.68;1.33;;;27.80;98.40;;;;;;4997989;28;20360;-69
2022/06/28 09:09:45;;;;;;;4.65;1.33;;;28.00;96.90;;;;;;5015320;28;20050;-69
2022/06/28 09:12:11;;;;;;;7.28;1.27;;;28.00;96.90;;;;;;4981850;28;20116;-69
2022/06/28 09:14:37;;;;;;;4.88;1.13;;;28.20;96.80;;;;;;4997279;28;20108;-69
2022/06/28 09:17:25;;;;;;;4.35;1.15;;;28.20;97.20;;;;;;4997814;28;20085;-69
2022/06/28 09:19:58;;;;;;;4.68;1.42;;;27.40;97.40;;;;;;5015094;28;20057;-69
2022/06/28 09:22:34;;;;;;;4.80;0.98;;;27.70;97.40;;;;;;5015767;28;20064;-69
2022/06/28 09:25:02;;;;;;;3.70;0.98;;;27.50;96.60;;;;;;4997455;28;20069;-69
2022/06/28 09:27:33;;;;;;;8.30;1.73;;;26.80;97.20;;;;;;5014818;28;20057;-69
2022/06/28 09:30:00;;;;;;;3.38;0.85;;;26.40;98.00;;;;;;4997272;28;20124;-69
2022/06/28 09:32:31;;;;;;;10.80;2.08;;;26.40;97.70;;;;;;4997478;28;20053;-70
2022/06/28 09:35:00;;;;;;;6.18;1.17;;;26.40;97.60;;;;;;4997508;28;20052;-69
2022/06/28 09:37:48;;;;;;;4.43;0.98;;;26.30;97.10;;;;;;5015135;28;20052;-69
2022/06/28 09:40:31;;;;;;;6.65;0.95;;;26.40;97.60;;;;;;4998056;28;20082;-69
2022/06/28 09:43:12;;;;;;;5.28;1.15;;;26.50;97.10;;;;;;4997756;28;20064;-69
2022/06/28 09:45:42;;;;;;;2.55;0.90;;;26.10;94.90;;;;;;4997194;28;20057;-69
2022/06/28 09:48:14;;;;;;;4.30;1.63;;;25.60;97.00;;;;;;5014320;28;20459;-68
2022/06/28 09:50:40;;;;;;;3.55;1.05;;;25.30;96.80;;;;;;4987903;28;20530;-68
2022/06/28 09:53:07;;;;;;;3.80;1.05;;;25.10;97.70;;;;;;4981202;28;20062;-69
2022/06/28 09:55:33;;;;;;;5.20;1.25;;;24.80;97.90;;;;;;4981996;28;20129;-69
2022/06/28 09:58:01;;;;;;;7.53;0.82;;;24.70;98.10;;;;;;4981808;28;20457;-68
2022/06/28 10:00:29;;;;;;;6.35;1.02;;;24.40;99.00;;;;;;4981407;28;20477;-70
2022/06/28 10:02:57;;;;;;;4.38;1.13;;;24.10;97.80;;;;;;4998881;28;20493;-69
2022/06/28 10:05:24;;;;;;;3.55;1.13;;;23.90;97.90;;;;;;4980271;28;20125;-68
2022/06/28 10:07:50;;;;;;;4.80;1.48;;;24.20;99.30;;;;;;4998051;28;20356;-69
2022/06/28 10:10:16;;;;;;;4.13;1.45;;;24.70;97.70;;;;;;4973461;28;20145;-69
2022/06/28 10:15:32;;;;;;;3.75;1.10;;;25.20;98.40;;;;;;4981405;28;20047;-68
2022/06/28 10:18:10;;;;;;;5.63;0.95;;;25.40;98.30;;;;;;4991755;28;20408;-69
2022/06/28 10:20:37;;;;;;;4.85;1.02;;;25.50;97.90;;;;;;4994383;28;20051;-69
2022/06/28 10:23:22;;;;;;;15.82;1.75;;;25.70;98.30;;;;;;4996517;28;20046;-69
2022/06/28 10:26:06;;;;;;;5.20;1.23;;;25.40;94.40;;;;;;4981384;28;20125;-69
2022/06/28 10:28:59;;;;;;;7.47;1.60;;;24.80;95.80;;;;;;4998163;28;20054;-68
2022/06/28 10:31:25;;;;;;;4.60;1.13;;;24.80;96.30;;;;;;4981473;28;20050;-69
2022/06/28 10:34:01;;;;;;;3.20;1.00;;;25.10;98.10;;;;;;4998226;28;20046;-69
2022/06/28 10:36:48;;;;;;;5.65;0.82;;;25.20;97.90;;;;;;4998214;28;20355;-69
2022/06/28 10:39:17;;;;;;;5.45;1.35;;;25.50;98.20;;;;;;4997567;28;20068;-69
2022/06/28 10:41:47;;;;;;;7.78;1.73;;;25.70;97.30;;;;;;4980709;28;20108;-69
2022/06/28 10:44:14;;;;;;;4.25;1.38;;;25.90;97.10;;;;;;4980938;28;20120;-69
2022/06/28 10:46:41;;;;;;;2.70;1.00;;;26.00;97.50;;;;;;4998154;28;20050;-69
2022/06/28 10:49:08;;;;;;;3.97;0.85;;;26.10;94.70;;;;;;4980469;28;20054;-69
2022/06/28 10:51:36;;;;;;;3.83;1.10;;;25.60;96.70;;;;;;4996947;28;20069;-68
2022/06/28 10:54:06;;;;;;;7.03;1.40;;;25.50;97.00;;;;;;4999521;28;20046;-69
2022/06/28 10:56:46;;;;;;;3.75;1.15;;;25.00;96.50;;;;;;5000312;28;20050;-69
2022/06/28 10:59:17;;;;;;;5.90;1.08;;;24.90;96.90;;;;;;4999763;28;20050;-68
2022/06/28 11:01:45;;;;;;;3.70;1.33;;;24.90;97.10;;;;;;5000131;28;20057;-69
2022/06/28 11:04:12;;;;;;;6.78;1.48;;;24.70;96.00;;;;;;4999280;28;20081;-69
2022/06/28 11:06:43;;;;;;;6.72;1.20;;;24.40;96.00;;;;;;5011474;28;20042;-69
2022/06/28 11:09:15;;;;;;;5.07;1.10;;;24.20;98.00;;;;;;4999072;28;20057;-69
2022/06/28 11:12:06;;;;;;;5.93;1.42;;;24.20;96.40;;;;;;4999624;28;20054;-69
2022/06/28 11:14:34;;;;;;;6.20;1.20;;;24.00;95.90;;;;;;5000095;28;20149;-69
2022/06/28 11:17:00;;;;;;;8.85;1.73;;;23.90;96.00;;;;;;4999909;28;20458;-69
2022/06/28 11:19:26;;;;;;;3.95;0.88;;;23.90;97.60;;;;;;4999694;28;20046;-68
2022/06/28 11:21:55;;;;;;;5.20;0.88;;;23.80;97.80;;;;;;4999198;28;20462;-68
2022/06/28 11:24:23;;;;;;;6.40;1.27;;;23.70;98.70;;;;;;4998990;28;20100;-69
2022/06/28 11:29:34;;;;;;;3.13;1.02;;;23.60;98.50;;;;;;4998979;28;20065;-69
2022/06/28 11:31:59;;;;;;;6.25;1.10;;;23.70;99.10;;;;;;4999370;28;20058;-69
2022/06/28 11:34:28;;;;;;;4.82;0.90;;;23.70;99.10;;;;;;5016505;28;20077;-69
2022/06/28 11:36:56;;;;;;;4.63;1.20;;;23.70;98.60;;;;;;4998093;28;20042;-69
2022/06/28 11:39:23;;;;;;;4.03;1.08;;;24.00;98.60;;;;;;5009954;28;20038;-69
2022/06/28 11:41:51;;;;;;;3.67;1.23;;;24.40;97.80;;;;;;4999011;28;20050;-68
2022/06/28 11:44:18;;;;;;;3.97;1.10;;;24.80;97.20;;;;;;4998869;28;20038;-69
2022/06/28 11:46:45;;;;;;;12.02;1.58;;;25.00;96.80;;;;;;5016537;28;20421;-69
2022/06/28 11:49:10;;;;;;;4.45;1.45;;;25.30;97.10;;;;;;4999154;28;20046;-69
2022/06/28 11:51:40;;;;;;;5.72;1.23;;;25.60;95.10;;;;;;4999076;28;20054;-69
2022/06/28 11:54:06;;;;;;;4.25;0.95;;;25.70;96.00;;;;;;4998846;28;20046;-68
2022/06/28 11:56:43;;;;;;;2.63;0.95;;;25.70;96.00;;;;;;4999191;28;20046;-69
2022/06/28 11:59:09;;;;;;;5.47;1.48;;;25.70;94.70;;;;;;4999161;28;20057;-69
2022/06/28 12:01:39;;;;;;;2.08;1.20;;;25.60;94.50;;;;;;5016087;28;20359;-68
2022/06/28 12:04:08;;;;;;;2.08;0.73;;;25.70;94.50;;;;;;5016061;28;20103;-69
2022/06/28 12:06:38;;;;;;;2.17;1.00;;;25.20;94.40;;;;;;4998071;28;20053;-69
2022/06/28 12:09:06;;;;;;;8.65;1.10;;;25.10;95.20;;;;;;5016111;28;20128;-69
2022/06/28 12:11:44;;;;;;;5.78;1.60;;;25.10;95.40;;;;;;4999242;28;20383;-68
2022/06/28 12:14:21;;;;;;;1.95;0.85;;;25.30;94.90;;;;;;4998869;28;20402;-69
2022/06/28 12:16:49;;;;;;;2.45;0.90;;;25.30;95.50;;;;;;4998873;28;20195;-69
2022/06/28 12:19:27;;;;;;;3.50;0.70;;;25.00;94.80;;;;;;5016071;28;20046;-69
2022/06/28 12:22:07;;;;;;;3.20;0.73;;;24.80;95.50;;;;;;4995901;28;20053;-69
2022/06/28 12:24:47;;;;;;;5.60;1.13;;;24.80;93.90;;;;;;5015411;28;20431;-69
2022/06/28 12:27:17;;;;;;;3.55;0.80;;;25.20;95.20;;;;;;5015264;28;20477;-69
2022/06/28 12:29:43;;;;;;;5.00;1.42;;;25.40;94.70;;;;;;4998261;28;20041;-69
2022/06/28 12:32:09;;;;;;;4.05;0.98;;;25.70;95.00;;;;;;4998116;28;20119;-69
2022/06/28 12:34:35;;;;;;;2.33;0.80;;;25.90;94.20;;;;;;4998325;28;20052;-69
2022/06/28 12:37:02;;;;;;;3.17;0.85;;;25.70;94.20;;;;;;4997817;28;20038;-69
2022/06/28 12:39:27;;;;;;;5.05;1.02;;;25.60;94.40;;;;;;5015325;28;20147;-69
2022/06/28 12:41:53;;;;;;;3.53;0.98;;;25.40;93.70;;;;;;5015406;28;20116;-69
2022/06/28 12:44:18;;;;;;;3.35;0.75;;;25.30;94.30;;;;;;4998269;28;20418;-68
2022/06/28 12:46:44;;;;;;;3.97;0.90;;;25.30;93.90;;;;;;4998265;28;20060;-69
2022/06/28 12:49:10;;;;;;;3.53;0.60;;;25.60;94.00;;;;;;4998732;28;20046;-69
2022/06/28 12:51:37;;;;;;;3.58;1.25;;;26.00;92.90;;;;;;4997349;28;20120;-69
2022/06/28 12:54:03;;;;;;;3.60;0.75;;;25.80;92.80;;;;;;4998617;28;20049;-69
2022/06/28 12:56:29;;;;;;;3.47;0.75;;;25.90;93.00;;;;;;4998172;28;20360;-69
2022/06/28 12:58:58;;;;;;;1.95;0.60;;;26.30;93.20;;;;;;4997878;28;20045;-69
2022/06/28 13:01:24;;;;;;;3.58;0.73;;;26.30;92.10;;;;;;4998217;28;20056;-68